createdAt,value
2019-06-10T00:00:36.929Z,99247.77
2019-06-10T00:03:11.476Z,99257.59
2019-06-10T00:05:44.947Z,99259.04
2019-06-10T00:08:20.706Z,99256.52
2019-06-10T00:10:53.644Z,99257.91
2019-06-10T00:13:27.614Z,99250.95
2019-06-10T00:16:02.662Z,99259.86
2019-06-10T00:18:42.168Z,99262.73
2019-06-10T00:21:11.289Z,99264.02
2019-06-10T00:23:44.536Z,99264.96
2019-06-10T00:26:17.632Z,99267.53
2019-06-10T00:28:51.884Z,99262.33
2019-06-10T00:31:24.912Z,99268.36
2019-06-10T00:33:59.291Z,99268.05
2019-06-10T00:36:32.792Z,99265.19
2019-06-10T00:39:08.938Z,99251.43
2019-06-10T00:41:43.521Z,99259.91
2019-06-10T00:44:16.872Z,99261.95
2019-06-10T00:46:51.660Z,99267.68
2019-06-10T00:49:25.978Z,99279.48
2019-06-10T00:52:01.239Z,99270.27
2019-06-10T00:54:34.783Z,99269.75
2019-06-10T00:57:10.030Z,99256.56
2019-06-10T00:59:43.720Z,99260.25
2019-06-10T01:02:16.983Z,99263.34
2019-06-10T01:04:51.387Z,99261.08
2019-06-10T01:07:24.744Z,99254.87
2019-06-10T01:10:00.979Z,99248.31
2019-06-10T01:12:33.653Z,99257.67
2019-06-10T01:15:07.427Z,99257.19
2019-06-10T01:17:41.725Z,99260.11
2019-06-10T01:20:16.116Z,99263.06
2019-06-10T01:22:51.500Z,99258.75
2019-06-10T01:25:24.068Z,99256.54
2019-06-10T01:27:57.255Z,99255.55
2019-06-10T01:30:31.224Z,99254.16
2019-06-10T01:33:04.796Z,99257.93
2019-06-10T01:35:37.901Z,99258.09
2019-06-10T01:38:13.453Z,99266.21
2019-06-10T01:40:46.039Z,99260.96
2019-06-10T01:43:21.230Z,99264.25
2019-06-10T01:45:53.906Z,99253.36
2019-06-10T01:48:40.466Z,99251.50
2019-06-10T01:51:02.044Z,99260.09
2019-06-10T01:53:35.251Z,99261.08
2019-06-10T01:56:10.378Z,99259.48
2019-06-10T01:58:43.627Z,99260.28
2019-06-10T02:01:23.356Z,99258.44
2019-06-10T02:03:56.425Z,99255.45
2019-06-10T02:06:31.494Z,99249.64
2019-06-10T02:09:07.322Z,99246.86
2019-06-10T02:11:41.363Z,99244.96
2019-06-10T02:14:17.761Z,99247.42
2019-06-10T02:16:51.609Z,99243.27
2019-06-10T02:19:25.060Z,99237.63
2019-06-10T02:21:58.153Z,99235.56
2019-06-10T02:24:31.781Z,99243.92
2019-06-10T02:27:06.129Z,99241.91
2019-06-10T02:29:41.218Z,99241.20
2019-06-10T02:32:20.076Z,99235.30
2019-06-10T02:35:03.536Z,99227.48
2019-06-10T02:37:31.745Z,99228.22
2019-06-10T02:40:04.087Z,99237.88
2019-06-10T02:42:37.276Z,99229.45
2019-06-10T02:45:13.785Z,99240.58
2019-06-10T02:47:45.716Z,99241.70
2019-06-10T02:50:32.089Z,99235.27
2019-06-10T02:52:58.289Z,99242.95
2019-06-10T02:55:35.018Z,99239.30
2019-06-10T02:58:09.633Z,99239.30
2019-06-10T03:00:48.273Z,99235.53
2019-06-10T03:03:22.837Z,99226.20
2019-06-10T03:05:53.627Z,99230.11
2019-06-10T03:08:31.611Z,99227.34
2019-06-10T03:11:04.125Z,99230.37
2019-06-10T03:13:37.154Z,99226.28
2019-06-10T03:16:28.123Z,99226.78
2019-06-10T03:19:03.047Z,99231.78
2019-06-10T03:21:36.214Z,99224.41
2019-06-10T03:24:09.316Z,99224.98
2019-06-10T03:26:42.833Z,99224.66
2019-06-10T03:29:16.514Z,99224.66
2019-06-10T03:31:49.635Z,99238.98
2019-06-10T03:34:30.740Z,99233.84
2019-06-10T03:36:57.996Z,99235.86
2019-06-10T03:39:32.355Z,99231.61
2019-06-10T03:42:05.269Z,99231.98
2019-06-10T03:44:38.455Z,99233.88
2019-06-10T03:47:12.170Z,99237.91
2019-06-10T03:49:52.400Z,99235.96
2019-06-10T03:52:19.573Z,99235.66
2019-06-10T03:54:52.637Z,99239.02
2019-06-10T03:57:26.945Z,99228.98
2019-06-10T04:00:02.258Z,99230.20
2019-06-10T04:02:36.438Z,99228.31
2019-06-10T04:05:13.085Z,99225.63
2019-06-10T04:07:44.986Z,99225.19
2019-06-10T04:10:17.990Z,99227.47
2019-06-10T04:12:52.373Z,99216.84
2019-06-10T04:15:28.363Z,99218.65
2019-06-10T04:18:00.044Z,99217.76
2019-06-10T04:20:34.030Z,99221.68
2019-06-10T04:23:07.334Z,99222.82
2019-06-10T04:25:43.578Z,99220.92
2019-06-10T04:28:17.749Z,99221.34
2019-06-10T04:30:53.207Z,99220.55
2019-06-10T04:33:26.194Z,99220.55
2019-06-10T04:35:59.662Z,99219.97
2019-06-10T04:38:32.964Z,99220.03
2019-06-10T04:41:06.427Z,99224.71
2019-06-10T04:43:40.259Z,99224.61
2019-06-10T04:46:13.379Z,99213.57
2019-06-10T04:48:47.278Z,99217.83
2019-06-10T04:51:22.926Z,99223.06
2019-06-10T04:53:54.851Z,99228.46
2019-06-10T04:56:29.333Z,99236.06
2019-06-10T04:59:03.262Z,99238.84
2019-06-10T05:01:36.758Z,99241.70
2019-06-10T05:04:12.576Z,99239.00
2019-06-10T05:06:45.686Z,99241.73
2019-06-10T05:09:19.179Z,99235.78
2019-06-10T05:11:52.356Z,99241.69
2019-06-10T05:14:28.538Z,99240.61
2019-06-10T05:17:02.255Z,99241.62
2019-06-10T05:19:38.541Z,99242.83
2019-06-10T05:22:12.507Z,99242.58
2019-06-10T05:24:45.657Z,99248.54
2019-06-10T05:27:20.455Z,99251.86
2019-06-10T05:29:53.658Z,99236.09
2019-06-10T05:32:27.842Z,99241.48
2019-06-10T05:35:03.489Z,99241.25
2019-06-10T05:37:36.057Z,99250.25
2019-06-10T05:40:09.166Z,99247.49
2019-06-10T05:42:42.742Z,99248.56
2019-06-10T05:45:16.142Z,99246.16
2019-06-10T05:47:49.436Z,99249.25
2019-06-10T05:50:24.049Z,99255.97
2019-06-10T05:52:57.220Z,99260.78
2019-06-10T05:55:33.479Z,99265.66
2019-06-10T05:58:06.127Z,99259.59
2019-06-10T06:00:42.847Z,99257.98
2019-06-10T06:03:16.155Z,99256.09
2019-06-10T06:05:48.992Z,99258.94
2019-06-10T06:08:22.845Z,99257.10
2019-06-10T06:10:56.211Z,99253.41
2019-06-10T06:13:32.702Z,99251.81
2019-06-10T06:16:06.021Z,99250.44
2019-06-10T06:18:41.981Z,99252.23
2019-06-10T06:21:25.317Z,99251.38
2019-06-10T06:23:52.815Z,99253.47
2019-06-10T06:26:28.371Z,99252.08
2019-06-10T06:29:02.270Z,99259.02
2019-06-10T06:31:36.494Z,99258.03
2019-06-10T06:34:13.737Z,99254.58
2019-06-10T06:36:46.846Z,99254.13
2019-06-10T06:39:19.692Z,99248.83
2019-06-10T06:41:53.650Z,99242.45
2019-06-10T06:44:27.559Z,99244.91
2019-06-10T06:47:02.711Z,99239.23
2019-06-10T06:49:37.098Z,99243.79
2019-06-10T06:52:12.834Z,99239.50
2019-06-10T06:54:46.148Z,99243.36
2019-06-10T06:57:19.327Z,99239.20
2019-06-10T06:59:52.713Z,99235.27
2019-06-10T07:02:25.772Z,99239.12
2019-06-10T07:04:58.700Z,99245.31
2019-06-10T07:07:33.084Z,99232.27
2019-06-10T07:10:09.031Z,99227.16
2019-06-10T07:12:43.933Z,99229.98
2019-06-10T07:15:19.330Z,99218.08
2019-06-10T07:17:52.644Z,99222.05
2019-06-10T07:20:25.655Z,99225.10
2019-06-10T07:22:58.698Z,99222.41
2019-06-10T07:25:34.369Z,99222.75
2019-06-10T07:28:06.647Z,99226.95
2019-06-10T07:30:47.266Z,99222.02
2019-06-10T07:33:15.294Z,99221.78
2019-06-10T07:35:48.094Z,99230.52
2019-06-10T07:38:24.031Z,99223.37
2019-06-10T07:40:56.038Z,99223.40
2019-06-10T07:43:29.382Z,99229.91
2019-06-10T07:46:03.618Z,99233.02
2019-06-10T07:48:39.558Z,99227.98
2019-06-10T07:51:13.397Z,99225.37
2019-06-10T07:53:46.898Z,99231.72
2019-06-10T07:56:19.894Z,99233.31
2019-06-10T07:58:53.163Z,99224.27
2019-06-10T08:01:26.591Z,99224.31
2019-06-10T08:03:59.539Z,99225.22
2019-06-10T08:06:34.773Z,99225.27
2019-06-10T08:09:07.970Z,99222.52
2019-06-10T08:11:44.936Z,99216.74
2019-06-10T08:14:16.298Z,99220.88
2019-06-10T08:16:52.902Z,99215.41
2019-06-10T08:19:34.320Z,99212.46
2019-06-10T08:22:02.903Z,99217.41
2019-06-10T08:24:37.326Z,99215.41
2019-06-10T08:27:12.082Z,99220.76
2019-06-10T08:29:48.047Z,99219.28
2019-06-10T08:32:24.367Z,99207.20
2019-06-10T08:34:56.618Z,99208.86
2019-06-10T08:37:33.044Z,99213.92
2019-06-10T08:40:07.053Z,99213.36
2019-06-10T08:42:43.621Z,99209.83
2019-06-10T08:45:17.346Z,99210.77
2019-06-10T08:47:50.044Z,99205.31
2019-06-10T08:50:24.883Z,99208.95
2019-06-10T08:53:10.360Z,99206.44
2019-06-10T08:55:35.404Z,99213.09
2019-06-10T08:58:13.016Z,99197.92
2019-06-10T09:00:49.374Z,99200.53
2019-06-10T09:03:23.310Z,99201.92
2019-06-10T09:05:58.451Z,99206.88
2019-06-10T09:08:32.854Z,99208.63
2019-06-10T09:11:05.993Z,99203.20
2019-06-10T09:13:40.754Z,99199.33
2019-06-10T09:16:19.167Z,99200.36
2019-06-10T09:18:55.018Z,99192.92
2019-06-10T09:21:26.566Z,99198.99
2019-06-10T09:24:01.255Z,99193.13
2019-06-10T09:26:34.210Z,99193.36
2019-06-10T09:29:07.685Z,99185.55
2019-06-10T09:31:46.713Z,99186.67
2019-06-10T09:34:36.746Z,99190.82
2019-06-10T09:37:12.434Z,99185.80
2019-06-10T09:39:51.836Z,99184.93
2019-06-10T09:42:23.878Z,99185.49
2019-06-10T09:44:57.178Z,99176.13
2019-06-10T09:47:34.012Z,99178.48
2019-06-10T09:50:08.151Z,99174.43
2019-06-10T09:52:47.456Z,99169.87
2019-06-10T09:55:23.320Z,99171.66
2019-06-10T09:57:59.913Z,99172.15
2019-06-10T10:00:47.531Z,99160.64
2019-06-10T10:03:19.605Z,99160.86
2019-06-10T10:06:10.087Z,99153.91
2019-06-10T10:08:32.887Z,99156.38
2019-06-10T10:11:06.026Z,99154.08
2019-06-10T10:13:39.141Z,99154.02
2019-06-10T10:16:13.142Z,99152.08
2019-06-10T10:18:50.439Z,99155.58
2019-06-10T10:21:22.304Z,99152.64
2019-06-10T10:24:06.942Z,99156.55
2019-06-10T10:26:30.573Z,99153.39
2019-06-10T10:29:05.164Z,99148.94
2019-06-10T10:31:39.386Z,99153.83
2019-06-10T10:34:13.643Z,99146.41
2019-06-10T10:36:48.446Z,99147.45
2019-06-10T10:39:25.168Z,99148.50
2019-06-10T10:41:58.111Z,99139.43
2019-06-10T10:44:32.003Z,99143.25
2019-06-10T10:47:05.431Z,99138.42
2019-06-10T10:49:38.838Z,99141.25
2019-06-10T10:52:13.750Z,99137.80
2019-06-10T10:54:47.946Z,99138.64
2019-06-10T10:57:23.153Z,99138.23
2019-06-10T10:59:56.389Z,99127.31
2019-06-10T11:02:32.059Z,99129.75
2019-06-10T11:05:06.088Z,99136.21
2019-06-10T11:07:42.293Z,99138.23
2019-06-10T11:10:15.488Z,99137.02
2019-06-10T11:12:53.731Z,99139.03
2019-06-10T11:15:29.039Z,99132.57
2019-06-10T11:18:05.926Z,99134.20
2019-06-10T11:20:39.129Z,99125.67
2019-06-10T11:23:12.459Z,99117.39
2019-06-10T11:25:45.834Z,99116.59
2019-06-10T11:28:22.807Z,99122.03
2019-06-10T11:30:57.399Z,99115.55
2019-06-10T11:33:32.653Z,99111.90
2019-06-10T11:36:04.759Z,99103.77
2019-06-10T11:38:37.879Z,99101.63
2019-06-10T11:41:13.386Z,99106.48
2019-06-10T11:43:50.489Z,99102.78
2019-06-10T11:46:23.851Z,99101.16
2019-06-10T11:48:58.919Z,99105.42
2019-06-10T11:51:33.025Z,99098.76
2019-06-10T11:54:06.037Z,99092.91
2019-06-10T11:56:39.129Z,99093.60
2019-06-10T11:59:13.550Z,99099.75
2019-06-10T12:01:48.971Z,99086.39
2019-06-10T12:04:23.888Z,99083.72
2019-06-10T12:06:57.105Z,99076.86
2019-06-10T12:09:33.367Z,99073.01
2019-06-10T12:12:05.893Z,99067.87
2019-06-10T12:14:38.988Z,99055.85
2019-06-10T12:17:24.872Z,99059.81
2019-06-10T12:19:49.783Z,99049.86
2019-06-10T12:22:22.886Z,99056.24
2019-06-10T12:25:24.195Z,99056.41
2019-06-10T12:27:32.827Z,99050.70
2019-06-10T12:30:09.483Z,99058.84
2019-06-10T12:32:44.841Z,99047.29
2019-06-10T12:35:18.130Z,99047.42
2019-06-10T12:37:56.270Z,99046.48
2019-06-10T12:40:27.366Z,99040.52
2019-06-10T12:43:06.791Z,99044.22
2019-06-10T12:45:38.866Z,99035.53
2019-06-10T12:48:14.466Z,99035.56
2019-06-10T12:50:47.922Z,99026.12
2019-06-10T12:53:22.912Z,99032.55
2019-06-10T12:55:57.249Z,99024.14
2019-06-10T12:58:33.747Z,99022.52
2019-06-10T13:01:08.015Z,99019.22
2019-06-10T13:03:43.747Z,98991.86
2019-06-10T13:06:17.380Z,98991.86
2019-06-10T13:08:52.978Z,99012.66
2019-06-10T13:11:25.267Z,99004.02
2019-06-10T13:14:00.036Z,99002.91
2019-06-10T13:16:34.361Z,99009.83
2019-06-10T13:19:14.545Z,98998.59
2019-06-10T13:21:49.778Z,98994.34
2019-06-10T13:24:23.072Z,98992.09
2019-06-10T13:26:56.546Z,98990.02
2019-06-10T13:29:33.151Z,98988.95
2019-06-10T13:32:07.686Z,98978.09
2019-06-10T13:34:43.916Z,98980.07
2019-06-10T13:37:17.091Z,98987.87
2019-06-10T13:39:52.307Z,98979.47
2019-06-10T13:42:27.752Z,98979.80
2019-06-10T13:45:06.768Z,98983.58
2019-06-10T13:47:42.840Z,98978.20
2019-06-10T13:50:19.210Z,98977.77
2019-06-10T13:52:52.189Z,98967.95
2019-06-10T13:55:27.056Z,98967.34
2019-06-10T13:58:03.931Z,98968.97
2019-06-10T14:00:45.841Z,98956.39
2019-06-10T14:03:15.886Z,98956.77
2019-06-10T14:05:46.787Z,98956.56
2019-06-10T14:08:19.221Z,98960.83
2019-06-10T14:10:55.146Z,98956.25
2019-06-10T14:13:33.264Z,98944.01
2019-06-10T14:16:07.603Z,98957.44
2019-06-10T14:18:42.375Z,98950.23
2019-06-10T14:21:18.734Z,98949.16
2019-06-10T14:23:52.100Z,98948.53
2019-06-10T14:26:36.770Z,98942.73
2019-06-10T14:29:02.894Z,98942.16
2019-06-10T14:31:43.559Z,98935.16
2019-06-10T14:34:18.036Z,98940.17
2019-06-10T14:36:52.484Z,98939.02
2019-06-10T14:39:25.839Z,98938.83
2019-06-10T14:41:59.442Z,98925.69
2019-06-10T14:44:33.040Z,98931.06
2019-06-10T14:47:06.580Z,98926.89
2019-06-10T14:49:42.341Z,98920.56
2019-06-10T14:52:16.947Z,98921.56
2019-06-10T14:54:50.071Z,98913.17
2019-06-10T14:57:24.042Z,98914.44
2019-06-10T14:59:57.466Z,98918.20
2019-06-10T15:02:33.304Z,98923.20
2019-06-10T15:05:07.226Z,98927.30
2019-06-10T15:07:42.288Z,98924.73
2019-06-10T15:10:17.693Z,98920.36
2019-06-10T15:12:52.924Z,98923.44
2019-06-10T15:15:29.619Z,98915.38
2019-06-10T15:18:03.116Z,98924.86
2019-06-10T15:20:37.257Z,98926.08
2019-06-10T15:23:11.487Z,98922.56
2019-06-10T15:25:52.442Z,98927.48
2019-06-10T15:28:21.107Z,98924.98
2019-06-10T15:30:55.093Z,98932.09
2019-06-10T15:33:32.677Z,98936.56
2019-06-10T15:36:06.050Z,98940.27
2019-06-10T15:38:39.281Z,98945.62
2019-06-10T15:41:18.298Z,98943.29
2019-06-10T15:43:52.975Z,98941.85
2019-06-10T15:46:25.565Z,98940.83
2019-06-10T15:48:58.604Z,98939.40
2019-06-10T15:51:33.129Z,98933.16
2019-06-10T15:54:06.319Z,98930.20
2019-06-10T15:56:49.915Z,98927.97
2019-06-10T15:59:18.630Z,98929.09
2019-06-10T16:01:53.114Z,98926.03
2019-06-10T16:04:29.915Z,98931.83
2019-06-10T16:07:03.170Z,98930.00
2019-06-10T16:09:36.416Z,98928.30
2019-06-10T16:12:14.718Z,98924.72
2019-06-10T16:14:46.358Z,98937.28
2019-06-10T16:17:19.359Z,98938.42
2019-06-10T16:19:53.366Z,98940.34
2019-06-10T16:22:26.593Z,98949.63
2019-06-10T16:24:59.721Z,98952.94
2019-06-10T16:27:47.415Z,98957.04
2019-06-10T16:30:09.075Z,98957.45
2019-06-10T16:32:46.323Z,98957.41
2019-06-10T16:35:18.882Z,98957.24
2019-06-10T16:37:54.561Z,98964.73
2019-06-10T16:40:27.363Z,98959.23
2019-06-10T16:43:00.583Z,98959.15
2019-06-10T16:45:34.095Z,98956.93
2019-06-10T16:48:08.386Z,98950.41
2019-06-10T16:50:42.605Z,98955.18
2019-06-10T16:53:15.159Z,98957.35
2019-06-10T16:55:48.204Z,98958.56
2019-06-10T16:58:27.935Z,98952.61
2019-06-10T17:01:02.952Z,98951.30
2019-06-10T17:03:35.224Z,98940.47
2019-06-10T17:06:08.341Z,98937.48
2019-06-10T17:08:43.510Z,98952.25
2019-06-10T17:11:16.619Z,98949.87
2019-06-10T17:13:52.562Z,98963.98
2019-06-10T17:16:27.323Z,98963.89
2019-06-10T17:19:02.278Z,98961.62
2019-06-10T17:21:39.325Z,98964.66
2019-06-10T17:24:13.337Z,98974.38
2019-06-10T17:26:46.447Z,98989.88
2019-06-10T17:29:19.826Z,98972.66
2019-06-10T17:31:53.247Z,98978.62
2019-06-10T17:34:28.062Z,98968.51
2019-06-10T17:37:03.111Z,98979.36
2019-06-10T17:39:36.367Z,98978.63
2019-06-10T17:42:12.246Z,98969.36
2019-06-10T17:44:45.049Z,98969.50
2019-06-10T17:47:18.177Z,98961.75
2019-06-10T17:49:51.383Z,98966.66
2019-06-10T17:52:25.956Z,98969.91
2019-06-10T17:54:59.112Z,98963.33
2019-06-10T17:57:36.065Z,98958.14
2019-06-10T18:00:14.102Z,98961.14
2019-06-10T18:02:45.272Z,98959.89
2019-06-10T18:05:18.941Z,98965.81
2019-06-10T18:07:52.814Z,98965.13
2019-06-10T18:10:27.595Z,98972.87
2019-06-10T18:13:13.142Z,98972.70
2019-06-10T18:15:36.944Z,98978.91
2019-06-10T18:18:12.818Z,98972.05
2019-06-10T18:20:45.868Z,98981.74
2019-06-10T18:23:22.899Z,98978.26
2019-06-10T18:25:55.888Z,98980.54
2019-06-10T18:28:31.355Z,98980.08
2019-06-10T18:31:06.103Z,98984.94
2019-06-10T18:33:42.484Z,98987.60
2019-06-10T18:36:17.286Z,98986.72
2019-06-10T18:38:52.699Z,98998.29
2019-06-10T18:41:27.848Z,99005.23
2019-06-10T18:44:22.596Z,99009.72
2019-06-10T18:46:51.885Z,99011.09
2019-06-10T18:49:26.425Z,99018.51
2019-06-10T18:52:00.727Z,99019.95
2019-06-10T18:54:37.353Z,99020.20
2019-06-10T18:57:11.660Z,99016.00
2019-06-10T18:59:45.717Z,99019.46
2019-06-10T19:02:19.668Z,99018.25
2019-06-10T19:04:54.784Z,99024.48
2019-06-10T19:07:33.485Z,99024.20
2019-06-10T19:10:09.209Z,99020.73
2019-06-10T19:12:44.583Z,99027.27
2019-06-10T19:15:20.413Z,99022.64
2019-06-10T19:17:55.409Z,99023.57
2019-06-10T19:20:33.592Z,99023.84
2019-06-10T19:23:07.071Z,99022.70
2019-06-10T19:25:44.426Z,99013.16
2019-06-10T19:28:18.592Z,99008.30
2019-06-10T19:30:53.403Z,99010.63
2019-06-10T19:33:28.444Z,99011.59
2019-06-10T19:36:24.833Z,99003.45
2019-06-10T19:38:58.657Z,99007.19
2019-06-10T19:41:36.607Z,98996.05
2019-06-10T19:44:10.250Z,99002.52
2019-06-10T19:46:44.252Z,98992.18
2019-06-10T19:49:18.673Z,98992.81
2019-06-10T19:51:53.554Z,98989.94
2019-06-10T19:54:28.321Z,98989.02
2019-06-10T19:57:04.005Z,98987.03
2019-06-10T20:00:02.768Z,98985.05
2019-06-10T20:02:13.731Z,98982.02
2019-06-10T20:04:47.766Z,98985.89
2019-06-10T20:07:23.066Z,98985.55
2019-06-10T20:09:56.541Z,98988.84
2019-06-10T20:12:32.316Z,98984.66
2019-06-10T20:15:07.805Z,98987.45
2019-06-10T20:17:41.680Z,98986.78
2019-06-10T20:20:14.745Z,98983.08
2019-06-10T20:22:48.169Z,98982.84
2019-06-10T20:25:22.371Z,98984.14
2019-06-10T20:27:56.209Z,98983.11
2019-06-10T20:30:29.639Z,98979.03
2019-06-10T20:33:03.539Z,98980.32
2019-06-10T20:35:37.522Z,98979.13
2019-06-10T20:38:13.152Z,98984.00
2019-06-10T20:40:47.155Z,98974.94
2019-06-10T20:43:22.407Z,98978.91
2019-06-10T20:45:58.230Z,98961.91
2019-06-10T20:48:33.194Z,98977.95
2019-06-10T20:51:07.437Z,98976.02
2019-06-10T20:53:43.205Z,98973.55
2019-06-10T20:56:20.120Z,98972.86
2019-06-10T20:58:52.522Z,98971.92
2019-06-10T21:01:25.782Z,98978.66
2019-06-10T21:03:58.798Z,98987.04
2019-06-10T21:06:32.683Z,98974.95
2019-06-10T21:09:09.381Z,98977.05
2019-06-10T21:11:45.444Z,98970.75
2019-06-10T21:14:17.138Z,98972.73
2019-06-10T21:16:51.063Z,98970.92
2019-06-10T21:19:24.285Z,98968.12
2019-06-10T21:21:57.226Z,98968.06
2019-06-10T21:24:32.229Z,98973.50
2019-06-10T21:27:05.138Z,98968.84
2019-06-10T21:29:38.309Z,98973.94
2019-06-10T21:32:12.442Z,98960.45
2019-06-10T21:34:47.695Z,98965.58
2019-06-10T21:37:22.566Z,98966.03
2019-06-10T21:39:56.153Z,98963.23
2019-06-10T21:42:29.338Z,98963.13
2019-06-10T21:45:03.421Z,98961.86
2019-06-10T21:47:36.869Z,98960.89
2019-06-10T21:50:12.472Z,98959.28
2019-06-10T21:52:46.137Z,98965.54
2019-06-10T21:55:22.288Z,98962.05
2019-06-10T21:57:55.283Z,98962.97
2019-06-10T22:00:31.278Z,98956.94
2019-06-10T22:03:05.543Z,98963.64
2019-06-10T22:05:38.660Z,98961.65
2019-06-10T22:08:12.552Z,98966.62
2019-06-10T22:10:47.733Z,98963.05
2019-06-10T22:13:22.373Z,98966.62
2019-06-10T22:16:15.151Z,98964.29
2019-06-10T22:18:49.133Z,98967.53
2019-06-10T22:21:22.829Z,98962.17
2019-06-10T22:23:57.134Z,98956.34
2019-06-10T22:26:32.125Z,98965.05
2019-06-10T22:29:15.823Z,98958.65
2019-06-10T22:31:49.288Z,98958.38
2019-06-10T22:34:23.599Z,98962.67
2019-06-10T22:36:57.694Z,98963.70
2019-06-10T22:39:32.536Z,98957.15
2019-06-10T22:42:05.720Z,98955.02
2019-06-10T22:44:39.120Z,98952.93
2019-06-10T22:47:12.336Z,98958.75
2019-06-10T22:49:45.858Z,98964.66
2019-06-10T22:52:19.401Z,98958.83
2019-06-10T22:54:55.136Z,98957.64
2019-06-10T22:57:27.051Z,98957.48
2019-06-10T23:00:02.868Z,98956.07
2019-06-10T23:02:34.993Z,98954.44
2019-06-10T23:05:08.185Z,98959.56
2019-06-10T23:07:43.387Z,98949.32
2019-06-10T23:10:16.412Z,98958.04
2019-06-10T23:12:51.324Z,98953.48
2019-06-10T23:15:25.507Z,98956.47
2019-06-10T23:18:00.055Z,98949.46
2019-06-10T23:20:33.510Z,98952.11
2019-06-10T23:23:06.597Z,98960.47
2019-06-10T23:25:39.669Z,98956.62
2019-06-10T23:28:13.144Z,98962.44
2019-06-10T23:30:47.359Z,98956.81
2019-06-10T23:33:22.923Z,98950.33
2019-06-10T23:35:56.538Z,98955.15
2019-06-10T23:38:29.546Z,98946.67
2019-06-10T23:41:03.818Z,98948.98
2019-06-10T23:43:37.415Z,98943.42
2019-06-10T23:46:12.092Z,98944.56
2019-06-10T23:48:45.452Z,98947.19
2019-06-10T23:51:22.642Z,98936.59
2019-06-10T23:53:58.417Z,98943.31
2019-06-10T23:56:32.587Z,98936.03
2019-06-10T23:59:05.491Z,98930.10
